TAF and METAR

METAR for El Alto International Airport

SLLP 061100Z 01005KT 9999 NSC M00/M20 Q1038
Report created 6. aug 13:00
wind 5 knots from N (010°) visibility > 10km No significant clouds. Temperature -0° with dewpoint at -20° (Humidity 20.46%) Pressure 1038 hPa

TAF for El Alto International Airport

TAF SLLP 061000Z 0612/0712 26007KT 9999 NSC TX18/0620Z TNM05/0711Z TEMPO 0618/0622 13013KT BECMG 0623/0701 07005KT
Report created 6. aug 12:00

between 6. aug 14:00 - 7. aug 14:00

wind 7 knots from W (260°) visibility > 10km No significant clouds. Max temperature 18° expected today at around 22 o'clock Min temperature -05° expected tomorrow at around 13 o'clock

temporarily between 6. aug 20:00 - 7. aug 00:00

wind 13 knots from SE (130°)

becoming between 7. aug 01:00 - 7. aug 03:00

wind 5 knots from ENE (070°)